createdAt,value
2019-04-22T00:00:44.964Z,15.70
2019-04-22T00:03:14.622Z,15.70
2019-04-22T00:06:00.909Z,15.70
2019-04-22T00:08:40.623Z,15.60
2019-04-22T00:11:03.926Z,15.60
2019-04-22T00:13:40.910Z,15.50
2019-04-22T00:15:56.522Z,15.50
2019-04-22T00:18:42.873Z,15.40
2019-04-22T00:20:59.385Z,15.40
2019-04-22T00:23:29.196Z,15.40
2019-04-22T00:26:01.983Z,15.30
2019-04-22T00:28:35.014Z,15.30
2019-04-22T00:31:04.788Z,15.20
2019-04-22T00:33:29.191Z,15.20
2019-04-22T00:35:54.544Z,15.10
2019-04-22T00:38:33.318Z,15.10
2019-04-22T00:40:55.906Z,15.10
2019-04-22T00:43:24.329Z,15.00
2019-04-22T00:45:47.858Z,15.00
2019-04-22T00:51:01.690Z,14.90
2019-04-22T00:56:09.431Z,14.90
2019-04-22T00:58:30.760Z,14.80
2019-04-22T01:01:04.745Z,14.80
2019-04-22T01:03:35.262Z,14.80
2019-04-22T01:06:04.592Z,14.80
2019-04-22T01:08:36.708Z,14.70
2019-04-22T01:11:03.279Z,14.70
2019-04-22T01:13:24.952Z,13.60
2019-04-22T01:16:00.895Z,14.60
2019-04-22T01:18:23.941Z,14.60
2019-04-22T01:21:07.258Z,14.60
2019-04-22T01:23:23.789Z,14.60
2019-04-22T01:25:55.125Z,14.50
2019-04-22T01:28:15.668Z,14.30
2019-04-22T01:30:40.604Z,14.50
2019-04-22T01:33:11.458Z,14.40
2019-04-22T01:35:41.191Z,12.20
2019-04-22T01:38:16.137Z,14.30
2019-04-22T01:40:58.631Z,14.20
2019-04-22T01:43:30.032Z,14.20
2019-04-22T01:45:56.192Z,14.20
2019-04-22T01:48:17.646Z,14.20
2019-04-22T01:50:46.200Z,14.20
2019-04-22T01:53:24.722Z,14.20
2019-04-22T01:55:46.890Z,14.10
2019-04-22T01:58:11.109Z,14.10
2019-04-22T02:00:46.932Z,14.00
2019-04-22T02:05:35.854Z,13.90
2019-04-22T02:08:15.350Z,13.80
2019-04-22T02:10:53.212Z,13.80
2019-04-22T02:13:06.897Z,13.80
2019-04-22T02:15:38.129Z,13.80
2019-04-22T02:18:11.570Z,13.70
2019-04-22T02:20:37.573Z,13.70
2019-04-22T02:23:40.291Z,13.70
2019-04-22T02:25:49.879Z,13.70
2019-04-22T02:28:26.168Z,13.70
2019-04-22T02:31:02.660Z,13.70
2019-04-22T02:33:40.947Z,13.70
2019-04-22T02:36:09.349Z,13.70
2019-04-22T02:38:35.680Z,13.60
2019-04-22T02:41:06.703Z,13.60
2019-04-22T02:43:26.150Z,13.60
2019-04-22T02:46:03.066Z,13.60
2019-04-22T02:48:25.501Z,13.60
2019-04-22T02:50:43.805Z,13.50
2019-04-22T02:53:41.860Z,13.50
2019-04-22T02:55:55.396Z,13.50
2019-04-22T02:58:16.842Z,13.50
2019-04-22T03:00:45.902Z,13.50
2019-04-22T03:03:20.845Z,13.50
2019-04-22T03:05:47.141Z,13.40
2019-04-22T03:10:53.679Z,13.40
2019-04-22T03:13:09.228Z,13.50
2019-04-22T03:15:41.897Z,13.30
2019-04-22T03:20:33.505Z,13.30
2019-04-22T03:23:16.912Z,13.30
2019-04-22T03:27:52.187Z,13.20
2019-04-22T03:33:11.266Z,13.20
2019-04-22T03:53:01.934Z,13.00
2019-04-22T03:57:50.170Z,13.00
2019-04-22T04:00:26.647Z,13.10
2019-04-22T04:02:56.050Z,13.10
2019-04-22T04:05:22.201Z,13.00
2019-04-22T04:10:25.288Z,13.00
2019-04-22T04:12:53.861Z,13.00
2019-04-22T04:17:44.114Z,13.00
2019-04-22T04:30:18.890Z,13.00
2019-04-22T04:35:12.627Z,13.00
2019-04-22T04:40:10.140Z,13.00
2019-04-22T04:45:11.098Z,13.00
2019-04-22T04:47:42.988Z,13.00
2019-04-22T04:49:57.489Z,13.10
2019-04-22T04:55:06.344Z,13.10
2019-04-22T04:57:28.252Z,13.00
2019-04-22T05:00:30.692Z,13.10
2019-04-22T05:02:20.432Z,13.10
2019-04-22T05:05:00.002Z,13.20
2019-04-22T05:07:18.854Z,13.20
2019-04-22T05:09:32.660Z,13.10
2019-04-22T05:14:36.787Z,13.30
2019-04-22T05:17:12.836Z,13.20
2019-04-22T05:19:32.340Z,13.30
2019-04-22T05:22:05.521Z,13.40
2019-04-22T05:27:10.017Z,13.60
2019-04-22T05:29:43.510Z,13.70
2019-04-22T05:31:57.009Z,13.80
2019-04-22T05:34:39.845Z,13.90
2019-04-22T05:36:53.898Z,14.10
2019-04-22T05:39:24.708Z,14.20
2019-04-22T05:41:55.052Z,14.20
2019-04-22T05:46:50.002Z,14.30
2019-04-22T05:49:18.219Z,14.40
2019-04-22T05:54:14.618Z,14.60
2019-04-22T05:56:40.879Z,14.70
2019-04-22T05:59:12.529Z,14.80
2019-04-22T06:01:55.112Z,15.00
2019-04-22T06:04:11.497Z,15.10
2019-04-22T06:06:35.319Z,15.30
2019-04-22T06:09:10.411Z,15.40
2019-04-22T06:14:08.847Z,16.00
2019-04-22T06:16:45.841Z,16.20
2019-04-22T06:19:14.033Z,16.50
2019-04-22T06:26:45.810Z,17.40
2019-04-22T06:29:12.893Z,17.90
2019-04-22T06:31:49.819Z,18.40
2019-04-22T06:34:11.888Z,18.60
2019-04-22T06:36:43.133Z,19.00
2019-04-22T06:39:02.471Z,19.40
2019-04-22T06:44:09.378Z,20.10
2019-04-22T06:46:34.642Z,20.60
2019-04-22T06:48:56.396Z,21.20
2019-04-22T06:51:30.384Z,21.80
2019-04-22T06:54:00.109Z,21.80
2019-04-22T06:56:22.062Z,21.60
2019-04-22T06:58:55.119Z,22.00
2019-04-22T07:06:37.249Z,22.50
2019-04-22T07:11:11.380Z,23.00
2019-04-22T07:14:02.540Z,23.70
2019-04-22T07:16:13.354Z,23.90
2019-04-22T07:18:43.019Z,24.10
2019-04-22T07:21:06.417Z,24.30
2019-04-22T07:23:45.724Z,24.60
2019-04-22T07:26:11.860Z,24.60
2019-04-22T07:28:34.427Z,24.80
2019-04-22T07:31:05.029Z,24.60
2019-04-22T07:33:37.960Z,25.00
2019-04-22T07:41:03.181Z,26.30
2019-04-22T07:43:43.084Z,25.70
2019-04-22T07:45:56.888Z,25.80
2019-04-22T07:48:33.484Z,26.40
2019-04-22T07:53:21.867Z,26.20
2019-04-22T07:55:51.801Z,27.20
2019-04-22T07:58:27.448Z,27.20
2019-04-22T08:00:55.364Z,26.60
2019-04-22T08:03:29.955Z,25.50
2019-04-22T08:05:58.834Z,25.40
2019-04-22T08:10:49.700Z,26.00
2019-04-22T08:13:16.975Z,26.90
2019-04-22T08:15:51.294Z,27.30
2019-04-22T08:18:17.382Z,26.90
2019-04-22T08:20:48.282Z,26.20
2019-04-22T08:23:19.973Z,26.60
2019-04-22T08:25:42.847Z,26.60
2019-04-22T08:28:11.881Z,26.20
2019-04-22T08:33:18.707Z,25.80
2019-04-22T08:36:00.871Z,26.60
2019-04-22T08:38:14.746Z,26.20
2019-04-22T08:40:41.799Z,26.30
2019-04-22T08:43:12.626Z,26.50
2019-04-22T08:45:38.537Z,26.10
2019-04-22T08:48:07.651Z,26.50
2019-04-22T08:50:33.987Z,26.80
2019-04-22T08:53:09.358Z,27.20
2019-04-22T08:55:40.509Z,27.70
2019-04-22T09:00:38.098Z,27.70
2019-04-22T09:03:04.708Z,28.50
2019-04-22T09:05:51.876Z,28.10
2019-04-22T09:07:58.717Z,28.20
2019-04-22T09:10:36.199Z,28.60
2019-04-22T09:15:30.458Z,29.30
2019-04-22T09:20:28.440Z,29.00
2019-04-22T09:22:53.922Z,28.90
2019-04-22T09:25:27.480Z,28.50
2019-04-22T09:27:49.859Z,29.20
2019-04-22T09:32:55.746Z,29.30
2019-04-22T09:35:21.478Z,28.60
2019-04-22T09:37:48.282Z,28.90
2019-04-22T09:40:15.619Z,28.70
2019-04-22T09:42:43.746Z,28.70
2019-04-22T09:45:12.451Z,29.90
2019-04-22T09:47:49.129Z,30.60
2019-04-22T09:50:12.763Z,30.10
2019-04-22T09:52:44.066Z,30.10
2019-04-22T09:57:52.447Z,31.40
2019-04-22T10:00:12.194Z,32.10
2019-04-22T10:02:59.234Z,31.90
2019-04-22T10:05:07.552Z,31.30
2019-04-22T10:07:31.911Z,30.70
2019-04-22T10:12:42.275Z,30.00
2019-04-22T10:15:13.788Z,29.90
2019-04-22T10:17:26.134Z,29.60
2019-04-22T10:20:10.549Z,29.40
2019-04-22T10:24:56.912Z,30.80
2019-04-22T10:27:20.630Z,31.00
2019-04-22T10:30:03.018Z,31.50
2019-04-22T10:32:17.544Z,31.80
2019-04-22T10:34:39.832Z,30.70
2019-04-22T10:37:04.379Z,30.50
2019-04-22T10:39:41.101Z,30.60
2019-04-22T10:41:58.903Z,30.80
2019-04-22T10:44:27.079Z,31.10
2019-04-22T10:46:54.238Z,30.80
2019-04-22T10:49:22.391Z,30.80
2019-04-22T10:51:50.454Z,30.70
2019-04-22T10:54:17.749Z,31.30
2019-04-22T10:56:45.250Z,32.00
2019-04-22T10:59:12.344Z,32.20
2019-04-22T11:01:40.259Z,31.50
2019-04-22T11:04:07.395Z,31.60
2019-04-22T11:06:40.991Z,32.10
2019-04-22T11:09:06.403Z,31.40
2019-04-22T11:11:44.407Z,30.90
2019-04-22T11:14:04.121Z,29.70
2019-04-22T11:16:31.783Z,29.00
2019-04-22T11:18:59.312Z,29.10
2019-04-22T11:21:27.424Z,29.60
2019-04-22T11:23:54.599Z,29.70
2019-04-22T11:26:21.978Z,30.20
2019-04-22T11:28:49.647Z,30.60
2019-04-22T11:31:16.795Z,30.30
2019-04-22T11:33:44.775Z,30.30
2019-04-22T11:36:11.863Z,30.60
2019-04-22T11:38:45.851Z,30.80
2019-04-22T11:41:07.393Z,31.10
2019-04-22T11:43:34.434Z,31.50
2019-04-22T11:46:03.474Z,31.10
2019-04-22T11:48:31.137Z,31.10
2019-04-22T11:50:58.081Z,31.50
2019-04-22T11:53:24.991Z,31.60
2019-04-22T11:55:53.180Z,31.10
2019-04-22T11:58:21.213Z,31.10
2019-04-22T12:00:49.412Z,31.10
2019-04-22T12:03:17.189Z,30.80
2019-04-22T12:05:45.850Z,31.20
2019-04-22T12:08:13.256Z,31.50
2019-04-22T12:10:46.837Z,30.80
2019-04-22T12:13:10.131Z,30.40
2019-04-22T12:15:37.752Z,30.30
2019-04-22T12:18:05.103Z,30.30
2019-04-22T12:20:32.991Z,30.20
2019-04-22T12:23:01.136Z,30.40
2019-04-22T12:25:42.333Z,29.90
2019-04-22T12:27:57.119Z,29.60
2019-04-22T12:30:25.614Z,29.60
2019-04-22T12:32:52.753Z,29.70
2019-04-22T12:35:19.900Z,29.70
2019-04-22T12:37:53.348Z,29.30
2019-04-22T12:40:29.380Z,28.90
2019-04-22T12:42:45.035Z,28.70
2019-04-22T12:45:16.154Z,28.40
2019-04-22T12:47:44.139Z,28.20
2019-04-22T12:50:19.936Z,28.20
2019-04-22T12:52:47.859Z,28.00
2019-04-22T12:55:12.011Z,28.00
2019-04-22T12:57:39.063Z,27.40
2019-04-22T13:00:09.023Z,27.10
2019-04-22T13:02:36.758Z,27.00
2019-04-22T13:05:05.933Z,26.70
2019-04-22T13:07:33.655Z,26.30
2019-04-22T13:10:01.445Z,26.20
2019-04-22T13:12:29.071Z,26.00
2019-04-22T13:14:57.194Z,26.20
2019-04-22T13:17:24.999Z,26.30
2019-04-22T13:19:52.099Z,26.00
2019-04-22T13:22:19.106Z,25.80
2019-04-22T13:24:46.051Z,25.70
2019-04-22T13:27:13.009Z,25.50
2019-04-22T13:29:41.227Z,25.50
2019-04-22T13:32:08.958Z,25.50
2019-04-22T13:34:42.286Z,25.40
2019-04-22T13:37:05.150Z,25.30
2019-04-22T13:39:32.195Z,25.50
2019-04-22T13:42:03.547Z,25.60
2019-04-22T13:44:28.111Z,25.70
2019-04-22T13:47:08.247Z,25.60
2019-04-22T13:49:59.297Z,25.60
2019-04-22T13:52:35.316Z,25.80
2019-04-22T13:57:09.065Z,25.80
2019-04-22T13:59:28.245Z,25.60
2019-04-22T14:02:19.331Z,25.50
2019-04-22T14:04:46.505Z,25.50
2019-04-22T14:07:14.638Z,25.50
2019-04-22T14:09:42.300Z,25.40
2019-04-22T14:12:12.212Z,25.30
2019-04-22T14:14:41.886Z,25.40
2019-04-22T14:17:07.358Z,25.50
2019-04-22T14:19:34.175Z,25.50
2019-04-22T14:22:01.968Z,25.30
2019-04-22T14:24:29.994Z,25.30
2019-04-22T14:27:13.571Z,25.40
2019-04-22T14:29:26.088Z,25.40
2019-04-22T14:32:03.910Z,25.50
2019-04-22T14:34:21.940Z,25.50
2019-04-22T14:36:48.673Z,25.40
2019-04-22T14:39:15.733Z,25.30
2019-04-22T14:41:57.360Z,25.30
2019-04-22T14:47:11.246Z,25.20
2019-04-22T14:49:28.813Z,25.10
2019-04-22T14:52:03.605Z,25.00
2019-04-22T14:54:24.191Z,25.00
2019-04-22T14:56:36.163Z,25.10
2019-04-22T14:59:03.243Z,25.10
2019-04-22T15:01:30.785Z,25.30
2019-04-22T15:03:58.825Z,25.20
2019-04-22T15:06:26.278Z,27.00
2019-04-22T15:08:56.189Z,25.40
2019-04-22T15:11:23.210Z,25.30
2019-04-22T15:13:51.539Z,25.60
2019-04-22T15:16:42.318Z,25.60
2019-04-22T15:19:31.782Z,25.60
2019-04-22T15:21:58.862Z,25.50
2019-04-22T15:24:27.381Z,25.60
2019-04-22T15:26:56.392Z,25.60
2019-04-22T15:29:25.227Z,25.50
2019-04-22T15:31:53.502Z,25.60
2019-04-22T15:34:20.799Z,25.50
2019-04-22T15:36:48.503Z,25.50
2019-04-22T15:39:15.649Z,25.50
2019-04-22T15:41:55.611Z,25.50
2019-04-22T15:44:12.064Z,25.50
2019-04-22T15:46:39.101Z,25.50
2019-04-22T15:49:06.432Z,25.40
2019-04-22T15:51:34.395Z,25.30
2019-04-22T15:54:03.836Z,25.30
2019-04-22T15:56:30.795Z,26.10
2019-04-22T15:58:57.832Z,25.20
2019-04-22T16:01:29.891Z,25.20
2019-04-22T16:03:54.723Z,25.20
2019-04-22T16:06:22.036Z,25.20
2019-04-22T16:08:49.817Z,25.10
2019-04-22T16:11:18.090Z,25.10
2019-04-22T16:13:46.377Z,25.00
2019-04-22T16:16:14.610Z,24.90
2019-04-22T16:18:42.204Z,24.70
2019-04-22T16:21:09.315Z,24.90
2019-04-22T16:23:50.133Z,24.90
2019-04-22T16:26:36.091Z,24.90
2019-04-22T16:29:03.483Z,24.80
2019-04-22T16:31:31.317Z,24.60
2019-04-22T16:33:58.515Z,24.60
2019-04-22T16:36:26.821Z,24.60
2019-04-22T16:38:55.194Z,24.50
2019-04-22T16:41:24.369Z,24.50
2019-04-22T16:43:51.584Z,24.60
2019-04-22T16:46:19.403Z,24.40
2019-04-22T16:48:47.623Z,24.40
2019-04-22T16:51:16.032Z,24.30
2019-04-22T16:53:43.300Z,24.20
2019-04-22T16:56:11.007Z,24.20
2019-04-22T16:58:38.849Z,24.10
2019-04-22T17:01:10.346Z,23.90
2019-04-22T17:03:56.976Z,23.90
2019-04-22T17:06:27.676Z,23.80
2019-04-22T17:08:55.187Z,23.80
2019-04-22T17:11:22.264Z,23.70
2019-04-22T17:13:50.174Z,23.80
2019-04-22T17:16:18.012Z,23.70
2019-04-22T17:18:46.821Z,23.60
2019-04-22T17:21:14.683Z,23.60
2019-04-22T17:23:43.391Z,23.50
2019-04-22T17:26:10.660Z,23.50
2019-04-22T17:28:37.589Z,23.50
2019-04-22T17:31:04.876Z,23.40
2019-04-22T17:33:32.775Z,23.40
2019-04-22T17:36:01.064Z,23.30
2019-04-22T17:38:40.064Z,23.20
2019-04-22T17:41:11.651Z,24.00
2019-04-22T17:44:03.646Z,23.10
2019-04-22T17:46:30.756Z,23.00
2019-04-22T17:49:25.529Z,23.10
2019-04-22T17:52:10.716Z,23.00
2019-04-22T17:54:37.388Z,22.90
2019-04-22T17:57:08.072Z,22.80
2019-04-22T17:59:38.164Z,22.70
2019-04-22T18:02:05.787Z,22.60
2019-04-22T18:04:16.215Z,22.50
2019-04-22T18:07:15.582Z,22.30
2019-04-22T18:09:57.688Z,22.00
2019-04-22T18:12:04.881Z,21.80
2019-04-22T18:14:46.402Z,21.50
2019-04-22T18:17:01.890Z,21.30
2019-04-22T18:19:26.005Z,21.20
2019-04-22T18:21:51.746Z,21.00
2019-04-22T18:24:17.488Z,20.70
2019-04-22T18:26:56.232Z,20.60
2019-04-22T18:29:22.212Z,20.60
2019-04-22T18:31:43.884Z,20.40
2019-04-22T18:34:15.832Z,20.30
2019-04-22T18:36:47.812Z,20.30
2019-04-22T18:39:22.413Z,20.10
2019-04-22T18:41:48.490Z,20.10
2019-04-22T18:44:19.837Z,19.90
2019-04-22T18:46:42.077Z,20.00
2019-04-22T18:49:12.384Z,19.70
2019-04-22T18:51:51.278Z,19.60
2019-04-22T18:54:48.514Z,19.60
2019-04-22T18:57:15.557Z,19.60
2019-04-22T18:59:32.680Z,19.40
2019-04-22T19:02:04.236Z,19.30
2019-04-22T19:04:31.571Z,19.20
2019-04-22T19:07:16.884Z,19.10
2019-04-22T19:09:53.269Z,19.00
2019-04-22T19:12:23.048Z,18.80
2019-04-22T19:17:19.161Z,18.60
2019-04-22T19:19:45.013Z,18.50
2019-04-22T19:22:06.709Z,18.40
2019-04-22T19:24:36.887Z,18.20
2019-04-22T19:27:02.326Z,18.20
2019-04-22T19:29:39.952Z,18.10
2019-04-22T19:32:05.179Z,18.00
2019-04-22T19:34:32.263Z,17.90
2019-04-22T19:37:03.630Z,17.90
2019-04-22T19:39:25.015Z,17.80
2019-04-22T19:42:00.706Z,17.80
2019-04-22T19:44:29.250Z,17.70
2019-04-22T19:47:18.635Z,17.60
2019-04-22T19:49:33.057Z,17.60
2019-04-22T19:52:05.657Z,17.50
2019-04-22T19:54:24.771Z,17.60
2019-04-22T19:56:40.273Z,17.50
2019-04-22T19:59:19.702Z,17.40
2019-04-22T20:01:52.536Z,17.40
2019-04-22T20:04:46.272Z,17.30
2019-04-22T20:07:15.403Z,17.30
2019-04-22T20:09:55.491Z,17.20
2019-04-22T20:12:16.445Z,17.20
2019-04-22T20:14:48.014Z,17.10
2019-04-22T20:17:07.565Z,17.00
2019-04-22T20:19:49.887Z,17.00
2019-04-22T20:22:14.292Z,17.00
2019-04-22T20:24:27.871Z,16.90
2019-04-22T20:27:13.606Z,16.90
2019-04-22T20:29:41.660Z,16.90
2019-04-22T20:32:12.334Z,16.80
2019-04-22T20:34:38.024Z,16.80
2019-04-22T20:37:11.927Z,16.80
2019-04-22T20:39:38.067Z,15.70
2019-04-22T20:42:16.478Z,16.60
2019-04-22T20:44:35.557Z,16.60
2019-04-22T20:46:56.093Z,16.60
2019-04-22T20:49:31.127Z,16.50
2019-04-22T20:52:08.017Z,16.50
2019-04-22T20:54:23.284Z,16.50
2019-04-22T20:56:51.835Z,16.40
2019-04-22T20:59:20.823Z,16.40
2019-04-22T21:01:52.552Z,16.40
2019-04-22T21:04:11.548Z,16.40
2019-04-22T21:06:47.360Z,16.30
2019-04-22T21:09:25.393Z,16.30
2019-04-22T21:11:45.148Z,16.20
2019-04-22T21:14:17.805Z,16.20
2019-04-22T21:16:53.006Z,16.20
2019-04-22T21:19:21.704Z,16.20
2019-04-22T21:21:46.670Z,16.10
2019-04-22T21:24:09.294Z,16.10
2019-04-22T21:26:39.281Z,16.10
2019-04-22T21:29:09.910Z,16.00
2019-04-22T21:31:38.595Z,16.00
2019-04-22T21:34:08.021Z,16.00
2019-04-22T21:36:42.905Z,15.90
2019-04-22T21:39:03.706Z,15.90
2019-04-22T21:41:34.422Z,15.90
2019-04-22T21:44:06.929Z,15.80
2019-04-22T21:46:35.311Z,15.80
2019-04-22T21:49:06.396Z,15.70
2019-04-22T21:51:39.989Z,15.70
2019-04-22T21:54:06.845Z,15.60
2019-04-22T21:59:06.832Z,15.50
2019-04-22T22:02:00.107Z,15.60
2019-04-22T22:04:25.220Z,15.40
2019-04-22T22:06:42.454Z,15.40
2019-04-22T22:09:27.561Z,15.30
2019-04-22T22:11:49.391Z,15.30
2019-04-22T22:14:25.609Z,15.20
2019-04-22T22:16:45.972Z,15.20
2019-04-22T22:19:17.770Z,15.20
2019-04-22T22:24:22.667Z,15.10
2019-04-22T22:26:50.922Z,15.10
2019-04-22T22:29:31.749Z,15.00
2019-04-22T22:31:51.708Z,15.00
2019-04-22T22:34:21.003Z,15.00
2019-04-22T22:36:36.806Z,14.90
2019-04-22T22:39:04.058Z,14.90
2019-04-22T22:41:18.710Z,15.00
2019-04-22T22:43:50.518Z,14.80
2019-04-22T22:46:28.387Z,14.80
2019-04-22T22:49:04.817Z,14.80
2019-04-22T22:51:39.599Z,14.80
2019-04-22T22:54:03.756Z,14.80
2019-04-22T22:56:39.736Z,14.70
2019-04-22T22:59:00.264Z,14.70
2019-04-22T23:01:30.956Z,14.70
2019-04-22T23:03:57.692Z,14.60
2019-04-22T23:06:34.058Z,14.60
2019-04-22T23:09:02.418Z,14.60
2019-04-22T23:11:40.324Z,14.60
2019-04-22T23:13:57.772Z,14.20
2019-04-22T23:16:13.143Z,14.50
2019-04-22T23:18:30.032Z,14.50
2019-04-22T23:20:59.173Z,14.50
2019-04-22T23:23:48.973Z,14.50
2019-04-22T23:26:38.861Z,14.40
2019-04-22T23:29:06.114Z,14.50
2019-04-22T23:31:37.519Z,14.40
2019-04-22T23:34:10.693Z,14.30
2019-04-22T23:37:10.477Z,14.30
2019-04-22T23:39:56.465Z,14.30
2019-04-22T23:42:19.441Z,14.30
2019-04-22T23:44:42.000Z,14.30
2019-04-22T23:47:11.103Z,14.30
2019-04-22T23:49:42.937Z,14.30
2019-04-22T23:52:19.590Z,14.30
2019-04-22T23:54:50.918Z,14.20
2019-04-22T23:57:23.758Z,14.30
